createdAt,value
2022-09-06T00:00:01.289Z,48.1
2022-09-06T00:05:01.498Z,47.8
2022-09-06T00:10:01.293Z,44.8
2022-09-06T00:25:01.775Z,44.0
2022-09-06T00:30:01.732Z,51.3
2022-09-06T00:35:01.844Z,49.1
2022-09-06T00:55:01.180Z,43.4
2022-09-06T01:00:01.217Z,44.2
2022-09-06T01:05:01.230Z,44.8
2022-09-06T01:10:01.089Z,45.6
2022-09-06T01:15:01.269Z,45.7
2022-09-06T01:20:01.096Z,46.8
2022-09-06T01:25:02.147Z,47.5
2022-09-06T01:30:01.067Z,48.1
2022-09-06T01:35:01.153Z,48.7
2022-09-06T01:40:01.991Z,49.6
2022-09-06T01:45:01.253Z,48.9
2022-09-06T01:50:01.089Z,48.4
2022-09-06T02:05:00.942Z,50.0
2022-09-06T02:10:05.848Z,50.5
2022-09-06T02:15:01.074Z,49.7
2022-09-06T02:20:00.882Z,49.9
2022-09-06T02:25:05.933Z,51.2
2022-09-06T02:30:00.853Z,50.6
2022-09-06T02:35:00.899Z,50.5
2022-09-06T02:40:01.031Z,50.5
2022-09-06T02:45:00.967Z,50.2
2022-09-06T02:50:00.841Z,49.6
2022-09-06T02:55:00.961Z,50.9
2022-09-06T03:00:00.825Z,51.5
2022-09-06T03:05:00.877Z,52.8
2022-09-06T03:10:00.814Z,58.3
2022-09-06T03:15:00.912Z,59.0
2022-09-06T03:20:05.927Z,60.7
2022-09-06T03:25:05.883Z,61.4
2022-09-06T03:30:05.888Z,61.2
2022-09-06T03:35:01.920Z,56.7
2022-09-06T03:40:01.357Z,56.3
2022-09-06T03:45:01.104Z,55.5
2022-09-06T03:50:00.873Z,55.3
2022-09-06T03:55:00.948Z,56.5
2022-09-06T04:00:00.901Z,58.3
2022-09-06T04:05:00.951Z,59.1
2022-09-06T04:10:00.911Z,60.2
2022-09-06T04:15:01.107Z,62.2
2022-09-06T04:20:01.055Z,63.5
2022-09-06T04:25:00.983Z,63.9
2022-09-06T04:30:00.942Z,64.2
2022-09-06T04:35:06.203Z,62.6
2022-09-06T04:40:01.273Z,60.4
2022-09-06T04:45:01.233Z,58.7
2022-09-06T04:50:00.969Z,56.9
2022-09-06T04:55:00.970Z,55.9
2022-09-06T05:00:00.927Z,56.0
2022-09-06T05:05:01.124Z,59.8
2022-09-06T05:10:00.823Z,60.9
2022-09-06T05:15:00.953Z,62.5
2022-09-06T05:20:00.811Z,63.6
2022-09-06T05:25:10.997Z,65.2
2022-09-06T05:35:01.072Z,60.4
2022-09-06T05:40:01.140Z,59.3
2022-09-06T05:45:01.147Z,59.3
2022-09-06T05:50:00.915Z,64.3
2022-09-06T05:55:00.956Z,66.0
2022-09-06T06:00:01.182Z,67.1
2022-09-06T06:05:01.048Z,67.7
2022-09-06T06:10:00.879Z,68.4
2022-09-06T06:15:01.009Z,63.5
2022-09-06T06:20:00.882Z,63.6
2022-09-06T06:25:01.088Z,63.7
2022-09-06T06:30:01.157Z,64.3
2022-09-06T06:35:00.998Z,63.1
2022-09-06T06:40:01.049Z,62.6
2022-09-06T06:45:01.297Z,61.0
2022-09-06T06:50:00.894Z,59.9
2022-09-06T06:55:01.130Z,59.6
2022-09-06T07:00:01.120Z,59.5
2022-09-06T07:05:01.264Z,58.7
2022-09-06T07:35:06.939Z,55.2
2022-09-06T07:40:01.776Z,55.1
2022-09-06T07:45:01.742Z,57.9
2022-09-06T08:35:01.529Z,51.8
2022-09-06T08:40:01.555Z,51.9
2022-09-06T08:45:01.498Z,51.3
2022-09-06T08:50:01.358Z,50.8
2022-09-06T08:55:01.454Z,51.1
2022-09-06T09:00:01.408Z,51.2
2022-09-06T09:05:02.666Z,51.0
2022-09-06T09:10:01.344Z,51.0
2022-09-06T09:20:01.321Z,51.1
2022-09-06T09:25:01.548Z,50.5
2022-09-06T09:55:01.818Z,50.6
2022-09-06T10:00:01.356Z,51.1
2022-09-06T10:05:01.409Z,51.4
2022-09-06T10:10:01.696Z,51.8
2022-09-06T10:15:07.143Z,51.9
2022-09-06T10:20:01.319Z,52.6
2022-09-06T10:25:01.412Z,55.3
2022-09-06T10:30:01.217Z,55.4
2022-09-06T10:35:01.795Z,56.6
2022-09-06T10:40:01.688Z,59.6
2022-09-06T10:45:01.402Z,61.6
2022-09-06T10:50:01.226Z,62.1
2022-09-06T10:55:01.293Z,65.2
2022-09-06T11:00:01.215Z,66.9
2022-09-06T11:25:01.234Z,61.0
2022-09-06T11:45:01.715Z,57.0
2022-09-06T12:05:02.900Z,56.0
2022-09-06T12:10:03.172Z,55.6
2022-09-06T12:25:01.284Z,52.2
2022-09-06T12:30:01.117Z,54.1
2022-09-06T12:55:01.562Z,54.2
2022-09-06T13:00:01.483Z,54.2
2022-09-06T13:05:01.651Z,54.1
2022-09-06T13:20:01.807Z,54.1
2022-09-06T13:25:01.757Z,53.7
2022-09-06T13:30:01.868Z,53.5
2022-09-06T13:35:01.643Z,53.9
2022-09-06T13:40:01.902Z,54.2
2022-09-06T14:00:01.662Z,57.6
2022-09-06T14:05:01.345Z,56.6
2022-09-06T14:10:01.290Z,57.3
2022-09-06T14:15:01.409Z,57.9
2022-09-06T14:20:01.284Z,58.5
2022-09-06T14:25:06.492Z,59.0
2022-09-06T14:30:01.349Z,59.3
2022-09-06T14:40:01.644Z,58.8
2022-09-06T14:45:01.379Z,58.4
2022-09-06T14:50:01.246Z,58.1
2022-09-06T14:55:01.437Z,58.6
2022-09-06T15:00:01.249Z,58.0
2022-09-06T15:05:01.394Z,57.7
2022-09-06T15:15:01.441Z,56.6
2022-09-06T15:20:06.669Z,55.4
2022-09-06T15:25:01.458Z,55.0
2022-09-06T15:30:01.334Z,54.5
2022-09-06T15:35:04.973Z,53.9
2022-09-06T15:40:01.482Z,53.0
2022-09-06T15:45:02.613Z,54.9
2022-09-06T15:50:01.610Z,55.0
2022-09-06T15:55:01.917Z,55.3
2022-09-06T16:00:02.619Z,55.5
2022-09-06T16:05:01.389Z,56.3
2022-09-06T16:10:02.430Z,54.0
2022-09-06T16:15:01.413Z,53.3
2022-09-06T16:20:01.367Z,52.6
2022-09-06T16:25:01.472Z,51.8
2022-09-06T16:40:01.499Z,55.8
2022-09-06T16:50:01.455Z,56.5
2022-09-06T16:55:01.386Z,51.3
2022-09-06T17:05:01.524Z,50.6
2022-09-06T17:10:01.261Z,49.2
2022-09-06T17:15:01.552Z,48.7
2022-09-06T17:20:06.370Z,48.1
2022-09-06T17:25:02.287Z,48.8
2022-09-06T17:35:01.396Z,49.8
2022-09-06T17:40:01.445Z,50.1
2022-09-06T17:50:01.360Z,50.7
2022-09-06T17:55:06.458Z,51.5
2022-09-06T18:05:01.615Z,51.2
2022-09-06T18:10:02.435Z,51.0
2022-09-06T18:20:01.266Z,50.6
2022-09-06T18:25:01.347Z,51.8
2022-09-06T18:40:01.450Z,52.9
2022-09-06T19:05:01.444Z,53.5
2022-09-06T19:10:01.616Z,58.8
2022-09-06T19:15:01.658Z,58.4
2022-09-06T19:20:08.103Z,58.9
2022-09-06T19:25:02.446Z,58.7
2022-09-06T19:30:06.376Z,59.0
2022-09-06T19:35:01.542Z,53.9
2022-09-06T19:40:11.491Z,54.2
2022-09-06T19:45:01.582Z,54.1
2022-09-06T19:50:06.286Z,55.1
2022-09-06T20:00:01.403Z,54.8
2022-09-06T20:05:01.343Z,54.5
2022-09-06T20:10:01.297Z,54.0
2022-09-06T20:15:06.363Z,53.2
2022-09-06T20:20:01.229Z,53.2
2022-09-06T20:25:01.458Z,54.6
2022-09-06T20:30:01.199Z,55.9
2022-09-06T20:35:01.324Z,57.0
2022-09-06T20:40:01.408Z,57.3
2022-09-06T20:45:06.265Z,58.1
2022-09-06T20:50:01.197Z,57.8
2022-09-06T20:55:01.332Z,56.6
2022-09-06T21:00:01.217Z,55.7
2022-09-06T21:05:01.477Z,56.5
2022-09-06T21:10:01.444Z,55.8
2022-09-06T21:15:01.534Z,55.4
2022-09-06T21:20:01.404Z,55.5
2022-09-06T21:25:01.424Z,55.6
2022-09-06T21:30:06.302Z,54.5
2022-09-06T21:35:01.411Z,54.2
2022-09-06T21:40:01.580Z,53.8
2022-09-06T21:45:01.408Z,53.7
2022-09-06T21:50:01.329Z,56.2
2022-09-06T21:55:07.431Z,56.1
2022-09-06T22:00:01.306Z,56.2
2022-09-06T22:05:01.413Z,56.2
2022-09-06T22:10:01.263Z,55.4
2022-09-06T22:15:01.550Z,51.8
2022-09-06T22:20:01.340Z,50.8
2022-09-06T22:25:01.491Z,49.4
2022-09-06T22:30:01.273Z,48.0
2022-09-06T22:35:01.452Z,52.1
2022-09-06T22:40:01.453Z,52.0
2022-09-06T22:45:01.536Z,51.6
2022-09-06T22:50:01.418Z,52.3
2022-09-06T22:55:01.345Z,53.2
2022-09-06T23:00:01.303Z,49.2
2022-09-06T23:05:01.672Z,48.9
2022-09-06T23:15:01.462Z,47.9
2022-09-06T23:20:01.339Z,47.2
2022-09-06T23:25:01.390Z,46.6
2022-09-06T23:30:02.463Z,46.5
2022-09-06T23:35:06.383Z,47.0
2022-09-06T23:40:09.373Z,47.8
2022-09-06T23:45:01.371Z,48.4
2022-09-06T23:50:01.237Z,48.4
2022-09-06T23:55:01.415Z,48.9
